Lebanon, NH

2:34 PM EST on February 09, 2016 (GMT -0500)
Lebanon Municipal | | Change Station
CLOSE
Current Station
Airport
Location: Lebanon,
Elevation: 597 ft
Nearby Weather Stations

Elev 597 ft 43.63 °N, 72.30 °W | Updated 25 minutes ago

Scattered Clouds
Scattered Clouds
29 °F
Feels Like 29 °F
N
0
Wind Variable Wind from North

Today
High -- | Low -- °F
--% Chance of Precip.
Yesterday
High -- | Low -- °F
Precip. -- in
Pressure 29.56 in
Visibility 10.0 miles
Clouds Scattered Clouds 2100 ft
Dew Point 14 °F
Humidity 54%
Rainfall 0.04 in
Snow Depth Not available.
6:56 AM 5:10 PM
New Moon, 2% visible
SPECI KLEB 091909Z 00000KT 10SM SCT021 M02/M10 A2956 RMK AO2 T10171100
Pressure 29.56 in
Visibility 10.0 miles
Clouds Scattered Clouds 2100 ft
Dew Point 14 °F
Humidity 54%
Rainfall 0.04 in
Snow Depth Not available.
6:56 AM 5:10 PM
New Moon, 2% visible
SPECI KLEB 091909Z 00000KT 10SM SCT021 M02/M10 A2956 RMK AO2 T10171100

10-Day Weather Forecast

Almanac

Astronomy

Feb. 09, 2016 Rise Set
Actual Time
Civil Twilight
Nautical Twilight
Astronomical Twilight
Moon
Length of Visible Light
Length of Day
Tomorrow will be .
, % of the Moon is Illuminated

Today's Extremes

State Highs State Lows

Community

WunderPhotos

Upload Photos

1,891,668 photos uploaded!

WunderBlog® & News

Nearby

Air Quality

  Air Quality AQ Index Pollutant
Not available.

Snow Depth

Station Depth Elevation

Earthquake Activity

City Distance Mag. Time & Date
Minimum magnitude displayed is 2.5.

Coastal Water Temperatures

Place Temperature

Stations

Nearby Weather Stations

Station Location Temp. Windchill Dew Point Humidity Wind Precip. Elev Updated Type
                   

Watches & Warnings

There are currently no watches in effect.